Wetterdaten: Woche 21.06.10 - 27.06.10 (KW25)
Datum Zeit Temperatur Luftfeuchte Luftdruck Niederschlag Wind Richtung Sonnenschein Solar Taupunkt Windchill Windben
21.06.2010 00:00 10.9 C 91 % 1015.5 hPa 0.0 l/m 0.3 km/h (0 Bft) O-SO 0.00 h 0 W/m 9.6 C 10.9 C 1.0 km/h (0 Bft)
21.06.2010 01:00 10.8 C 92 % 1015.4 hPa 0.0 l/m 0.2 km/h (0 Bft) O-SO 0.00 h 0 W/m 9.5 C 10.8 C 0.8 km/h (0 Bft)
21.06.2010 02:00 10.7 C 93 % 1015.5 hPa 0.0 l/m 0.0 km/h (0 Bft) N 0.00 h 0 W/m 9.6 C 10.7 C 0.5 km/h (0 Bft)
21.06.2010 03:00 10.6 C 93 % 1015.6 hPa 0.0 l/m 0.1 km/h (0 Bft) O-SO 0.00 h 0 W/m 9.5 C 10.6 C 0.4 km/h (0 Bft)
21.06.2010 04:00 10.6 C 94 % 1015.8 hPa 0.0 l/m 0.4 km/h (0 Bft) O-SO 0.00 h 0 W/m 9.6 C 10.6 C 1.1 km/h (1 Bft)
21.06.2010 05:00 10.6 C 93 % 1016.1 hPa 0.0 l/m 0.2 km/h (0 Bft) O-SO 0.00 h 5 W/m 9.5 C 10.6 C 0.7 km/h (0 Bft)
21.06.2010 06:00 10.7 C 95 % 1016.4 hPa 0.0 l/m 0.1 km/h (0 Bft) O-SO 0.00 h 18 W/m 9.8 C 10.7 C 0.6 km/h (0 Bft)
21.06.2010 07:00 11.2 C 90 % 1016.8 hPa 0.0 l/m 0.2 km/h (0 Bft) O-NO 0.00 h 84 W/m 9.6 C 11.2 C 0.7 km/h (0 Bft)
21.06.2010 08:00 12.6 C 81 % 1017.0 hPa 0.0 l/m 0.9 km/h (0 Bft) O 0.43 h 245 W/m 9.3 C 12.6 C 2.4 km/h (1 Bft)
21.06.2010 09:00 14.6 C 74 % 1016.7 hPa 0.0 l/m 2.8 km/h (1 Bft) W 0.72 h 530 W/m 10.1 C 14.6 C 5.6 km/h (1 Bft)
21.06.2010 10:00 15.3 C 67 % 1016.7 hPa 0.0 l/m 5.4 km/h (1 Bft) O-SO 0.70 h 440 W/m 9.1 C 15.3 C 9.9 km/h (2 Bft)
21.06.2010 11:00 14.9 C 70 % 1016.9 hPa 0.0 l/m 7.7 km/h (2 Bft) O-SO 0.30 h 369 W/m 9.5 C 14.9 C 11.9 km/h (2 Bft)
21.06.2010 12:00 14.6 C 69 % 1017.1 hPa 0.0 l/m 6.4 km/h (2 Bft) O-SO 0.00 h 273 W/m 9.1 C 14.6 C 9.7 km/h (2 Bft)
21.06.2010 13:00 15.0 C 68 % 1017.3 hPa 0.0 l/m 4.1 km/h (1 Bft) O-SO 0.00 h 309 W/m 9.1 C 15.0 C 6.8 km/h (2 Bft)
21.06.2010 14:00 16.0 C 66 % 1017.0 hPa 0.4 l/m 3.8 km/h (1 Bft) O-SO 0.38 h 390 W/m 9.7 C 16.0 C 6.3 km/h (2 Bft)
21.06.2010 15:00 13.2 C 83 % 1017.6 hPa 2.2 l/m 3.4 km/h (1 Bft) O-SO 0.00 h 187 W/m 10.4 C 13.2 C 6.4 km/h (2 Bft)
21.06.2010 16:00 14.4 C 89 % 1017.6 hPa 0.0 l/m 0.4 km/h (0 Bft) O-SO 0.05 h 324 W/m 12.6 C 14.4 C 1.6 km/h (1 Bft)
21.06.2010 17:00 16.2 C 79 % 1017.5 hPa 0.0 l/m 3.0 km/h (1 Bft) W 0.65 h 434 W/m 12.4 C 16.2 C 5.5 km/h (1 Bft)
21.06.2010 18:00 15.6 C 68 % 1017.9 hPa 0.0 l/m 6.5 km/h (2 Bft) O-SO 0.55 h 304 W/m 9.7 C 15.6 C 10.8 km/h (2 Bft)
21.06.2010 19:00 15.0 C 70 % 1018.4 hPa 0.0 l/m 1.4 km/h (1 Bft) O-SO 0.02 h 121 W/m 9.7 C 15.0 C 3.2 km/h (1 Bft)
21.06.2010 20:00 14.4 C 72 % 1018.8 hPa 0.0 l/m 0.4 km/h (0 Bft) O-SO 0.00 h 33 W/m 9.4 C 14.4 C 1.5 km/h (1 Bft)
21.06.2010 21:00 13.7 C 78 % 1019.0 hPa 0.0 l/m 0.2 km/h (0 Bft) N-NO 0.00 h 7 W/m 9.9 C 13.7 C 1.3 km/h (1 Bft)
21.06.2010 22:00 13.0 C 81 % 1019.5 hPa 0.0 l/m 0.2 km/h (0 Bft) NW 0.00 h 0 W/m 9.9 C 13.0 C 0.9 km/h (0 Bft)
21.06.2010 23:00 12.7 C 85 % 1019.7 hPa 0.0 l/m 0.0 km/h (0 Bft) NW 0.00 h 0 W/m 10.1 C 12.7 C 0.2 km/h (0 Bft)
22.06.2010 00:00 12.7 C 81 % 1019.7 hPa 0.0 l/m 0.2 km/h (0 Bft) N-NW 0.00 h 0 W/m 9.5 C 12.7 C 1.3 km/h (1 Bft)
22.06.2010 01:00 12.3 C 84 % 1019.7 hPa 0.0 l/m 0.4 km/h (0 Bft) N-NO 0.00 h 0 W/m 9.6 C 12.3 C 1.6 km/h (1 Bft)
22.06.2010 02:00 11.6 C 85 % 1019.8 hPa 0.0 l/m 0.2 km/h (0 Bft) NO 0.00 h 0 W/m 9.3 C 11.6 C 0.5 km/h (0 Bft)
22.06.2010 03:00 10.5 C 87 % 1019.9 hPa 0.0 l/m 1.7 km/h (1 Bft) NO 0.00 h 0 W/m 8.3 C 10.5 C 4.3 km/h (1 Bft)
22.06.2010 04:00 9.7 C 87 % 1020.0 hPa 0.0 l/m 1.8 km/h (1 Bft) SO 0.00 h 0 W/m 7.6 C 9.7 C 3.4 km/h (1 Bft)
22.06.2010 05:00 8.6 C 91 % 1020.4 hPa 0.0 l/m 2.5 km/h (1 Bft) O 0.02 h 10 W/m 7.3 C 8.6 C 3.9 km/h (1 Bft)
22.06.2010 06:00 8.7 C 91 % 1020.8 hPa 0.0 l/m 0.1 km/h (0 Bft) O 0.00 h 44 W/m 7.4 C 8.7 C 0.5 km/h (0 Bft)
22.06.2010 07:00 10.5 C 89 % 1021.0 hPa 0.0 l/m 0.5 km/h (0 Bft) O 0.98 h 200 W/m 8.8 C 10.5 C 1.6 km/h (1 Bft)
22.06.2010 08:00 12.7 C 83 % 1021.0 hPa 0.0 l/m 0.9 km/h (0 Bft) N-NW 1.00 h 363 W/m 9.9 C 12.7 C 2.3 km/h (1 Bft)
22.06.2010 09:00 14.5 C 77 % 1020.7 hPa 0.0 l/m 1.9 km/h (1 Bft) N-NW 0.97 h 511 W/m 10.5 C 14.5 C 3.8 km/h (1 Bft)
22.06.2010 10:00 16.2 C 70 % 1020.5 hPa 0.0 l/m 4.1 km/h (1 Bft) O-SO 0.90 h 664 W/m 10.8 C 16.2 C 7.1 km/h (2 Bft)
22.06.2010 11:00 16.9 C 66 % 1020.4 hPa 0.0 l/m 3.4 km/h (1 Bft) O-SO 0.45 h 573 W/m 10.5 C 16.9 C 6.6 km/h (2 Bft)
22.06.2010 12:00 16.3 C 66 % 1020.6 hPa 0.0 l/m 2.9 km/h (1 Bft) N 0.00 h 197 W/m 10.0 C 16.3 C 6.3 km/h (2 Bft)
22.06.2010 13:00 16.6 C 67 % 1020.6 hPa 0.0 l/m 2.3 km/h (1 Bft) N 0.00 h 244 W/m 10.5 C 16.6 C 5.4 km/h (1 Bft)
22.06.2010 14:00 16.6 C 66 % 1020.7 hPa 0.0 l/m 2.6 km/h (1 Bft) N-NO 0.00 h 187 W/m 10.2 C 16.6 C 6.0 km/h (2 Bft)
22.06.2010 15:00 17.9 C 63 % 1020.6 hPa 0.0 l/m 3.3 km/h (1 Bft) N-NO 0.53 h 458 W/m 10.7 C 17.9 C 7.1 km/h (2 Bft)
22.06.2010 16:00 18.6 C 58 % 1020.7 hPa 0.0 l/m 3.5 km/h (1 Bft) N 0.43 h 394 W/m 10.1 C 18.6 C 7.5 km/h (2 Bft)
22.06.2010 17:00 18.8 C 56 % 1020.8 hPa 0.0 l/m 3.0 km/h (1 Bft) O-SO 0.45 h 354 W/m 9.8 C 18.8 C 6.4 km/h (2 Bft)
22.06.2010 18:00 17.7 C 59 % 1021.0 hPa 0.0 l/m 1.7 km/h (1 Bft) O-SO 0.00 h 138 W/m 9.5 C 17.7 C 4.7 km/h (1 Bft)
22.06.2010 19:00 17.3 C 60 % 1021.1 hPa 0.0 l/m 1.0 km/h (0 Bft) O-SO 0.37 h 158 W/m 9.5 C 17.3 C 2.8 km/h (1 Bft)
22.06.2010 20:00 17.1 C 61 % 1021.1 hPa 0.0 l/m 0.5 km/h (0 Bft) N-NO 0.03 h 53 W/m 9.5 C 17.1 C 1.6 km/h (1 Bft)
22.06.2010 21:00 15.0 C 71 % 1021.2 hPa 0.0 l/m 0.9 km/h (0 Bft) SO 0.03 h 10 W/m 9.8 C 15.0 C 2.2 km/h (1 Bft)
22.06.2010 22:00 12.8 C 79 % 1021.7 hPa 0.0 l/m 0.6 km/h (0 Bft) SO 0.00 h 0 W/m 9.3 C 12.8 C 1.5 km/h (1 Bft)
22.06.2010 23:00 11.5 C 84 % 1021.8 hPa 0.0 l/m 0.4 km/h (0 Bft) SO 0.00 h 0 W/m 8.8 C 11.5 C 0.8 km/h (0 Bft)
23.06.2010 00:00 10.6 C 88 % 1021.7 hPa 0.0 l/m 1.3 km/h (1 Bft) SO 0.00 h 0 W/m 8.6 C 10.6 C 2.3 km/h (1 Bft)
23.06.2010 01:00 9.9 C 89 % 1021.5 hPa 0.0 l/m 1.7 km/h (1 Bft) O-SO 0.00 h 0 W/m 8.1 C 9.9 C 3.1 km/h (1 Bft)
23.06.2010 02:00 9.1 C 91 % 1021.3 hPa 0.0 l/m 0.4 km/h (0 Bft) O-SO 0.00 h 0 W/m 7.7 C 9.1 C 1.0 km/h (0 Bft)
23.06.2010 03:00 8.7 C 92 % 1021.0 hPa 0.0 l/m 0.2 km/h (0 Bft) O-SO 0.00 h 0 W/m 7.5 C 8.7 C 0.6 km/h (0 Bft)
23.06.2010 04:00 8.1 C 92 % 1020.8 hPa 0.0 l/m 0.4 km/h (0 Bft) O-SO 0.00 h 0 W/m 6.9 C 8.1 C 1.3 km/h (1 Bft)
23.06.2010 05:00 7.8 C 93 % 1020.9 hPa 0.0 l/m 0.7 km/h (0 Bft) O-SO 0.00 h 9 W/m 6.8 C 7.8 C 1.8 km/h (1 Bft)
23.06.2010 06:00 7.9 C 93 % 1021.0 hPa 0.0 l/m 0.0 km/h (0 Bft) O-SO 0.13 h 39 W/m 6.9 C 7.9 C 0.5 km/h (0 Bft)
23.06.2010 07:00 10.5 C 89 % 1020.9 hPa 0.0 l/m 0.0 km/h (0 Bft) N 1.00 h 214 W/m 8.8 C 10.5 C 0.2 km/h (0 Bft)
23.06.2010 08:00 12.9 C 82 % 1020.5 hPa 0.0 l/m 0.8 km/h (0 Bft) O-SO 1.00 h 380 W/m 10.0 C 12.9 C 1.8 km/h (1 Bft)
23.06.2010 09:00 16.0 C 72 % 1020.1 hPa 0.0 l/m 1.9 km/h (1 Bft) O-SO 1.00 h 528 W/m 11.0 C 16.0 C 4.1 km/h (1 Bft)
23.06.2010 10:00 18.4 C 63 % 1019.7 hPa 0.0 l/m 5.6 km/h (1 Bft) O-SO 1.00 h 691 W/m 11.3 C 18.4 C 9.4 km/h (2 Bft)
23.06.2010 11:00 19.7 C 57 % 1019.4 hPa 0.0 l/m 8.3 km/h (2 Bft) O-SO 0.95 h 790 W/m 10.9 C 19.7 C 14.4 km/h (3 Bft)
23.06.2010 12:00 20.6 C 50 % 1019.3 hPa 0.0 l/m 5.3 km/h (1 Bft) O 0.58 h 668 W/m 9.7 C 20.6 C 9.9 km/h (2 Bft)
23.06.2010 13:00 21.6 C 47 % 1019.2 hPa 0.0 l/m 4.6 km/h (1 Bft) O-SO 0.45 h 629 W/m 9.8 C 21.6 C 8.6 km/h (2 Bft)
23.06.2010 14:00 21.6 C 45 % 1019.0 hPa 0.0 l/m 5.5 km/h (1 Bft) O-SO 0.38 h 556 W/m 9.0 C 21.6 C 10.7 km/h (2 Bft)
23.06.2010 15:00 22.2 C 43 % 1018.8 hPa 0.0 l/m 5.3 km/h (1 Bft) O 0.63 h 661 W/m 9.1 C 22.2 C 10.3 km/h (2 Bft)
23.06.2010 16:00 22.7 C 43 % 1018.6 hPa 0.0 l/m 5.2 km/h (1 Bft) SO 0.83 h 638 W/m 9.3 C 22.7 C 9.9 km/h (2 Bft)
23.06.2010 17:00 22.6 C 42 % 1018.4 hPa 0.0 l/m 7.5 km/h (2 Bft) O-SO 1.00 h 569 W/m 9.0 C 22.6 C 12.3 km/h (3 Bft)
23.06.2010 18:00 22.3 C 42 % 1018.2 hPa 0.0 l/m 6.6 km/h (2 Bft) O-SO 1.00 h 378 W/m 8.8 C 22.3 C 10.6 km/h (2 Bft)
23.06.2010 19:00 21.7 C 44 % 1018.0 hPa 0.0 l/m 4.2 km/h (1 Bft) O-SO 0.93 h 209 W/m 9.0 C 21.7 C 7.5 km/h (2 Bft)
23.06.2010 20:00 19.9 C 50 % 1018.0 hPa 0.0 l/m 1.2 km/h (1 Bft) O-NO 0.00 h 43 W/m 9.3 C 19.9 C 2.9 km/h (1 Bft)
23.06.2010 21:00 17.4 C 61 % 1018.2 hPa 0.0 l/m 1.3 km/h (1 Bft) O-NO 0.00 h 9 W/m 9.8 C 17.4 C 2.8 km/h (1 Bft)
23.06.2010 22:00 15.4 C 71 % 1018.6 hPa 0.0 l/m 0.7 km/h (0 Bft) O-SO 0.00 h 0 W/m 10.1 C 15.4 C 1.2 km/h (1 Bft)
23.06.2010 23:00 14.0 C 76 % 1018.7 hPa 0.0 l/m 0.3 km/h (0 Bft) O-SO 0.00 h 0 W/m 9.8 C 14.0 C 1.0 km/h (0 Bft)
24.06.2010 00:00 13.0 C 80 % 1018.7 hPa 0.0 l/m 0.3 km/h (0 Bft) O-SO 0.00 h 0 W/m 9.7 C 13.0 C 0.9 km/h (0 Bft)
24.06.2010 01:00 12.0 C 83 % 1018.6 hPa 0.0 l/m 1.0 km/h (0 Bft) O-SO 0.00 h 0 W/m 9.3 C 12.0 C 2.1 km/h (1 Bft)
24.06.2010 02:00 11.3 C 86 % 1018.5 hPa 0.0 l/m 1.3 km/h (1 Bft) O-SO 0.00 h 0 W/m 9.0 C 11.3 C 2.3 km/h (1 Bft)
24.06.2010 03:00 10.6 C 87 % 1018.2 hPa 0.0 l/m 1.6 km/h (1 Bft) O-SO 0.00 h 0 W/m 8.6 C 10.6 C 2.9 km/h (1 Bft)
24.06.2010 04:00 9.9 C 89 % 1017.8 hPa 0.0 l/m 1.1 km/h (0 Bft) O 0.00 h 0 W/m 8.3 C 9.9 C 2.1 km/h (1 Bft)
24.06.2010 05:00 9.6 C 90 % 1018.1 hPa 0.0 l/m 1.9 km/h (1 Bft) O 0.00 h 9 W/m 8.0 C 9.6 C 3.4 km/h (1 Bft)
24.06.2010 06:00 9.6 C 91 % 1018.3 hPa 0.0 l/m 0.2 km/h (0 Bft) O 0.13 h 39 W/m 8.2 C 9.6 C 0.8 km/h (0 Bft)
24.06.2010 07:00 12.0 C 85 % 1018.3 hPa 0.0 l/m 0.0 km/h (0 Bft) O 1.00 h 211 W/m 9.7 C 12.0 C 0.2 km/h (0 Bft)
24.06.2010 08:00 14.3 C 79 % 1018.2 hPa 0.0 l/m 0.7 km/h (0 Bft) NO 1.00 h 374 W/m 10.7 C 14.3 C 2.1 km/h (1 Bft)
24.06.2010 09:00 17.3 C 71 % 1018.1 hPa 0.0 l/m 1.0 km/h (0 Bft) NW 1.00 h 537 W/m 11.9 C 17.3 C 2.4 km/h (1 Bft)
24.06.2010 10:00 19.9 C 59 % 1017.6 hPa 0.0 l/m 2.9 km/h (1 Bft) O-SO 1.00 h 681 W/m 11.5 C 19.9 C 6.3 km/h (2 Bft)
24.06.2010 11:00 21.6 C 53 % 1017.4 hPa 0.0 l/m 5.4 km/h (1 Bft) SO 1.00 h 793 W/m 11.5 C 21.6 C 9.7 km/h (2 Bft)
24.06.2010 12:00 22.3 C 48 % 1017.3 hPa 0.0 l/m 5.5 km/h (1 Bft) O-SO 1.00 h 859 W/m 10.7 C 22.3 C 10.2 km/h (2 Bft)
24.06.2010 13:00 23.1 C 46 % 1016.9 hPa 0.0 l/m 4.6 km/h (1 Bft) O-SO 1.00 h 882 W/m 11.0 C 23.1 C 8.2 km/h (2 Bft)
24.06.2010 14:00 23.9 C 46 % 1016.5 hPa 0.0 l/m 4.2 km/h (1 Bft) O-SO 1.00 h 861 W/m 11.4 C 23.9 C 7.8 km/h (2 Bft)
24.06.2010 15:00 23.9 C 45 % 1016.2 hPa 0.0 l/m 6.4 km/h (2 Bft) O-SO 1.00 h 782 W/m 11.2 C 23.9 C 11.0 km/h (2 Bft)
24.06.2010 16:00 24.1 C 45 % 1016.0 hPa 0.0 l/m 5.9 km/h (2 Bft) O-SO 1.00 h 669 W/m 11.5 C 24.1 C 10.3 km/h (2 Bft)
24.06.2010 17:00 24.3 C 44 % 1015.9 hPa 0.0 l/m 5.5 km/h (1 Bft) O-SO 1.00 h 528 W/m 11.2 C 24.3 C 9.1 km/h (2 Bft)
24.06.2010 18:00 24.2 C 44 % 1015.5 hPa 0.0 l/m 4.3 km/h (1 Bft) SO 1.00 h 368 W/m 11.1 C 24.2 C 7.2 km/h (2 Bft)
24.06.2010 19:00 23.5 C 45 % 1015.4 hPa 0.0 l/m 3.6 km/h (1 Bft) O-SO 0.90 h 193 W/m 10.9 C 23.5 C 5.7 km/h (1 Bft)
24.06.2010 20:00 21.8 C 53 % 1015.5 hPa 0.0 l/m 3.9 km/h (1 Bft) O-SO 0.13 h 62 W/m 11.6 C 21.8 C 5.6 km/h (1 Bft)
24.06.2010 21:00 19.1 C 64 % 1015.7 hPa 0.0 l/m 2.7 km/h (1 Bft) O-SO 0.03 h 9 W/m 12.2 C 19.1 C 4.2 km/h (1 Bft)
24.06.2010 22:00 17.0 C 72 % 1016.1 hPa 0.0 l/m 2.3 km/h (1 Bft) O-SO 0.00 h 0 W/m 11.8 C 17.0 C 3.4 km/h (1 Bft)
24.06.2010 23:00 15.4 C 78 % 1016.3 hPa 0.0 l/m 1.1 km/h (1 Bft) O-SO 0.00 h 0 W/m 11.5 C 15.4 C 1.9 km/h (1 Bft)
25.06.2010 00:00 14.4 C 82 % 1016.3 hPa 0.0 l/m 1.2 km/h (1 Bft) O-SO 0.00 h 0 W/m 11.3 C 14.4 C 2.2 km/h (1 Bft)
25.06.2010 01:00 13.5 C 84 % 1016.3 hPa 0.0 l/m 1.0 km/h (0 Bft) O-SO 0.00 h 0 W/m 10.9 C 13.5 C 1.9 km/h (1 Bft)
25.06.2010 02:00 12.6 C 88 % 1016.2 hPa 0.0 l/m 0.4 km/h (0 Bft) O-SO 0.00 h 0 W/m 10.7 C 12.6 C 0.9 km/h (0 Bft)
25.06.2010 03:00 12.0 C 89 % 1015.8 hPa 0.0 l/m 0.7 km/h (0 Bft) O-SO 0.00 h 0 W/m 10.3 C 12.0 C 1.9 km/h (1 Bft)
25.06.2010 04:00 11.6 C 90 % 1015.6 hPa 0.0 l/m 1.7 km/h (1 Bft) O-SO 0.00 h 0 W/m 10.0 C 11.6 C 3.2 km/h (1 Bft)
25.06.2010 05:00 11.0 C 91 % 1015.5 hPa 0.0 l/m 0.6 km/h (0 Bft) O-SO 0.00 h 9 W/m 9.6 C 11.0 C 1.6 km/h (1 Bft)
25.06.2010 06:00 11.0 C 92 % 1015.6 hPa 0.0 l/m 0.0 km/h (0 Bft) N 0.12 h 39 W/m 9.8 C 11.0 C 0.0 km/h (0 Bft)
25.06.2010 07:00 13.2 C 88 % 1015.5 hPa 0.0 l/m 0.1 km/h (0 Bft) O-SO 1.00 h 203 W/m 11.2 C 13.2 C 0.3 km/h (0 Bft)
25.06.2010 08:00 15.5 C 81 % 1015.2 hPa 0.0 l/m 0.5 km/h (0 Bft) O-SO 1.00 h 363 W/m 12.2 C 15.5 C 1.8 km/h (1 Bft)
25.06.2010 09:00 18.3 C 74 % 1015.2 hPa 0.0 l/m 1.2 km/h (1 Bft) N 1.00 h 528 W/m 13.6 C 18.3 C 2.9 km/h (1 Bft)
25.06.2010 10:00 20.6 C 68 % 1015.0 hPa 0.0 l/m 1.7 km/h (1 Bft) N-NW 0.95 h 607 W/m 14.3 C 20.6 C 3.6 km/h (1 Bft)
25.06.2010 11:00 22.8 C 58 % 1014.7 hPa 0.0 l/m 3.2 km/h (1 Bft) N-NW 1.00 h 688 W/m 14.1 C 22.8 C 5.7 km/h (1 Bft)
25.06.2010 12:00 23.5 C 49 % 1014.5 hPa 0.0 l/m 4.5 km/h (1 Bft) O-SO 1.00 h 791 W/m 12.2 C 23.5 C 8.1 km/h (2 Bft)
25.06.2010 13:00 24.3 C 47 % 1014.3 hPa 0.0 l/m 5.1 km/h (1 Bft) O-SO 1.00 h 848 W/m 12.3 C 24.3 C 8.8 km/h (2 Bft)
25.06.2010 14:00 25.3 C 46 % 1013.8 hPa 0.0 l/m 3.1 km/h (1 Bft) O-SO 1.00 h 858 W/m 12.7 C 25.3 C 5.7 km/h (1 Bft)
25.06.2010 15:00 26.1 C 44 % 1013.3 hPa 0.0 l/m 3.7 km/h (1 Bft) O-SO 1.00 h 783 W/m 12.9 C 26.1 C 6.9 km/h (2 Bft)
25.06.2010 16:00 26.5 C 43 % 1012.9 hPa 0.0 l/m 2.4 km/h (1 Bft) O-SO 1.00 h 671 W/m 12.7 C 26.5 C 4.8 km/h (1 Bft)
25.06.2010 17:00 26.4 C 41 % 1012.6 hPa 0.0 l/m 2.8 km/h (1 Bft) O-SO 1.00 h 528 W/m 12.2 C 26.4 C 5.2 km/h (1 Bft)
25.06.2010 18:00 25.2 C 44 % 1012.4 hPa 0.0 l/m 2.0 km/h (1 Bft) SO 0.20 h 127 W/m 12.2 C 25.2 C 3.5 km/h (1 Bft)
25.06.2010 19:00 23.6 C 60 % 1012.3 hPa 0.0 l/m 0.7 km/h (0 Bft) SW 0.42 h 138 W/m 15.3 C 23.6 C 1.4 km/h (1 Bft)
25.06.2010 20:00 24.0 C 59 % 1012.4 hPa 0.0 l/m 1.9 km/h (1 Bft) NW 1.00 h 104 W/m 15.6 C 24.0 C 3.3 km/h (1 Bft)
25.06.2010 21:00 21.8 C 68 % 1012.6 hPa 0.0 l/m 1.2 km/h (1 Bft) O-SO 0.28 h 18 W/m 15.7 C 21.8 C 2.1 km/h (1 Bft)
25.06.2010 22:00 19.6 C 75 % 1013.1 hPa 0.0 l/m 1.8 km/h (1 Bft) O-SO 0.00 h 0 W/m 15.1 C 19.6 C 2.8 km/h (1 Bft)
25.06.2010 23:00 18.0 C 81 % 1013.3 hPa 0.0 l/m 1.9 km/h (1 Bft) O 0.00 h 0 W/m 14.6 C 18.0 C 3.0 km/h (1 Bft)
26.06.2010 00:00 16.9 C 84 % 1013.5 hPa 0.0 l/m 1.2 km/h (1 Bft) O-SO 0.00 h 0 W/m 14.1 C 16.9 C 2.3 km/h (1 Bft)
26.06.2010 01:00 16.4 C 86 % 1013.2 hPa 0.0 l/m 0.4 km/h (0 Bft) O-SO 0.00 h 0 W/m 14.0 C 16.4 C 0.9 km/h (0 Bft)
26.06.2010 02:00 15.7 C 87 % 1013.2 hPa 0.0 l/m 1.2 km/h (1 Bft) O-SO 0.00 h 0 W/m 13.6 C 15.7 C 2.5 km/h (1 Bft)
26.06.2010 03:00 14.9 C 89 % 1013.2 hPa 0.0 l/m 0.8 km/h (0 Bft) O 0.00 h 0 W/m 13.0 C 14.9 C 1.9 km/h (1 Bft)
26.06.2010 04:00 14.0 C 91 % 1013.3 hPa 0.0 l/m 0.9 km/h (0 Bft) O 0.00 h 0 W/m 12.5 C 14.0 C 1.3 km/h (1 Bft)
26.06.2010 05:00 13.5 C 91 % 1013.6 hPa 0.0 l/m 0.8 km/h (0 Bft) O 0.00 h 10 W/m 12.1 C 13.5 C 1.6 km/h (1 Bft)
26.06.2010 06:00 13.4 C 92 % 1014.0 hPa 0.0 l/m 0.0 km/h (0 Bft) N 0.12 h 42 W/m 12.1 C 13.4 C 0.2 km/h (0 Bft)
26.06.2010 07:00 15.3 C 88 % 1014.3 hPa 0.0 l/m 0.0 km/h (0 Bft) N 1.00 h 191 W/m 13.3 C 15.3 C 0.0 km/h (0 Bft)
26.06.2010 08:00 17.6 C 82 % 1014.2 hPa 0.0 l/m 0.4 km/h (0 Bft) O-NO 1.00 h 350 W/m 14.5 C 17.6 C 1.8 km/h (1 Bft)
26.06.2010 09:00 20.0 C 76 % 1013.9 hPa 0.0 l/m 1.2 km/h (1 Bft) N-NW 1.00 h 511 W/m 15.7 C 20.0 C 2.7 km/h (1 Bft)
26.06.2010 10:00 22.8 C 64 % 1013.4 hPa 0.0 l/m 1.6 km/h (1 Bft) N-NW 1.00 h 659 W/m 15.7 C 22.8 C 3.7 km/h (1 Bft)
26.06.2010 11:00 24.9 C 56 % 1013.2 hPa 0.0 l/m 2.6 km/h (1 Bft) N-NW 1.00 h 773 W/m 15.5 C 24.9 C 5.1 km/h (1 Bft)
26.06.2010 12:00 26.2 C 51 % 1013.2 hPa 0.0 l/m 4.4 km/h (1 Bft) O-SO 1.00 h 847 W/m 15.2 C 26.2 C 7.7 km/h (2 Bft)
26.06.2010 13:00 26.9 C 46 % 1013.0 hPa 0.0 l/m 7.1 km/h (2 Bft) O-SO 1.00 h 862 W/m 14.2 C 26.9 C 11.2 km/h (2 Bft)
26.06.2010 14:00 27.4 C 42 % 1012.7 hPa 0.0 l/m 6.6 km/h (2 Bft) O-SO 1.00 h 832 W/m 13.3 C 27.4 C 10.5 km/h (2 Bft)
26.06.2010 15:00 27.9 C 40 % 1012.6 hPa 0.0 l/m 4.4 km/h (1 Bft) O-SO 1.00 h 761 W/m 13.1 C 27.9 C 7.8 km/h (2 Bft)
26.06.2010 16:00 28.0 C 39 % 1012.5 hPa 0.0 l/m 4.4 km/h (1 Bft) O-SO 1.00 h 657 W/m 12.6 C 28.0 C 7.8 km/h (2 Bft)
26.06.2010 17:00 28.0 C 37 % 1012.3 hPa 0.0 l/m 3.2 km/h (1 Bft) O-SO 1.00 h 513 W/m 12.0 C 28.0 C 5.8 km/h (2 Bft)
26.06.2010 18:00 28.0 C 39 % 1012.1 hPa 0.0 l/m 1.8 km/h (1 Bft) O 1.00 h 350 W/m 12.5 C 28.0 C 4.1 km/h (1 Bft)
26.06.2010 19:00 27.2 C 43 % 1012.2 hPa 0.0 l/m 1.3 km/h (1 Bft) N-NO 0.75 h 177 W/m 13.4 C 27.2 C 3.3 km/h (1 Bft)
26.06.2010 20:00 25.4 C 54 % 1012.5 hPa 0.0 l/m 2.7 km/h (1 Bft) NO 0.00 h 44 W/m 15.4 C 25.4 C 6.4 km/h (2 Bft)
26.06.2010 21:00 23.4 C 62 % 1013.0 hPa 0.0 l/m 2.8 km/h (1 Bft) N-NO 0.02 h 9 W/m 15.6 C 23.4 C 6.1 km/h (2 Bft)
26.06.2010 22:00 21.5 C 69 % 1013.6 hPa 0.0 l/m 0.8 km/h (0 Bft) NO 0.00 h 0 W/m 15.6 C 21.5 C 2.4 km/h (1 Bft)
26.06.2010 23:00 19.6 C 77 % 1014.0 hPa 0.0 l/m 0.2 km/h (0 Bft) NO 0.00 h 0 W/m 15.4 C 19.6 C 0.8 km/h (0 Bft)
27.06.2010 00:00 18.6 C 80 % 1014.4 hPa 0.0 l/m 1.3 km/h (1 Bft) O-NO 0.00 h 0 W/m 15.1 C 18.6 C 2.5 km/h (1 Bft)
27.06.2010 01:00 18.2 C 80 % 1014.5 hPa 0.0 l/m 0.4 km/h (0 Bft) O 0.00 h 0 W/m 14.6 C 18.2 C 1.2 km/h (1 Bft)
27.06.2010 02:00 17.6 C 80 % 1014.4 hPa 0.0 l/m 0.8 km/h (0 Bft) O-SO 0.00 h 0 W/m 14.2 C 17.6 C 2.5 km/h (1 Bft)
27.06.2010 03:00 16.8 C 84 % 1014.5 hPa 0.0 l/m 2.3 km/h (1 Bft) O-SO 0.00 h 0 W/m 14.2 C 16.8 C 3.3 km/h (1 Bft)
27.06.2010 04:00 15.8 C 86 % 1014.7 hPa 0.0 l/m 1.1 km/h (1 Bft) O-SO 0.00 h 0 W/m 13.6 C 15.8 C 2.0 km/h (1 Bft)
27.06.2010 05:00 15.0 C 89 % 1015.1 hPa 0.0 l/m 0.7 km/h (0 Bft) O 0.02 h 10 W/m 13.2 C 15.0 C 1.4 km/h (1 Bft)
27.06.2010 06:00 15.1 C 89 % 1015.7 hPa 0.0 l/m 0.9 km/h (0 Bft) O-SO 0.00 h 39 W/m 13.3 C 15.1 C 1.6 km/h (1 Bft)
27.06.2010 07:00 17.0 C 86 % 1015.7 hPa 0.0 l/m 0.2 km/h (0 Bft) O-SO 0.88 h 180 W/m 14.7 C 17.0 C 0.5 km/h (0 Bft)
27.06.2010 08:00 19.2 C 79 % 1015.8 hPa 0.0 l/m 0.3 km/h (0 Bft) O-SO 1.00 h 338 W/m 15.5 C 19.2 C 1.5 km/h (1 Bft)
27.06.2010 09:00 22.1 C 69 % 1015.8 hPa 0.0 l/m 0.8 km/h (0 Bft) O-SO 1.00 h 502 W/m 16.2 C 22.1 C 2.5 km/h (1 Bft)
27.06.2010 10:00 23.9 C 63 % 1015.6 hPa 0.0 l/m 2.4 km/h (1 Bft) O-SO 1.00 h 649 W/m 16.4 C 23.9 C 5.1 km/h (1 Bft)
27.06.2010 11:00 25.1 C 61 % 1015.6 hPa 0.0 l/m 2.5 km/h (1 Bft) O-SO 1.00 h 755 W/m 17.1 C 25.1 C 5.0 km/h (1 Bft)
27.06.2010 12:00 26.8 C 56 % 1015.5 hPa 0.0 l/m 3.8 km/h (1 Bft) O-SO 1.00 h 829 W/m 17.3 C 26.8 C 7.2 km/h (2 Bft)
27.06.2010 13:00 27.4 C 49 % 1015.5 hPa 0.0 l/m 7.3 km/h (2 Bft) O-SO 1.00 h 855 W/m 15.8 C 27.4 C 11.9 km/h (2 Bft)
27.06.2010 14:00 27.9 C 45 % 1015.3 hPa 0.0 l/m 9.6 km/h (2 Bft) O-SO 1.00 h 832 W/m 14.8 C 27.9 C 14.6 km/h (3 Bft)
27.06.2010 15:00 28.6 C 41 % 1015.0 hPa 0.0 l/m 5.2 km/h (1 Bft) O-SO 1.00 h 761 W/m 14.1 C 28.6 C 8.8 km/h (2 Bft)
27.06.2010 16:00 29.0 C 41 % 1015.0 hPa 0.0 l/m 4.6 km/h (1 Bft) O-SO 1.00 h 650 W/m 14.2 C 29.0 C 7.8 km/h (2 Bft)
27.06.2010 17:00 28.8 C 42 % 1014.7 hPa 0.0 l/m 3.0 km/h (1 Bft) O-SO 1.00 h 497 W/m 14.6 C 28.8 C 5.5 km/h (1 Bft)
27.06.2010 18:00 28.1 C 45 % 1014.6 hPa 0.0 l/m 3.4 km/h (1 Bft) O-SO 1.00 h 332 W/m 14.9 C 28.1 C 5.9 km/h (2 Bft)
27.06.2010 19:00 27.4 C 47 % 1014.5 hPa 0.0 l/m 2.0 km/h (1 Bft) O-NO 0.75 h 170 W/m 14.9 C 27.4 C 4.1 km/h (1 Bft)
27.06.2010 20:00 25.8 C 53 % 1014.8 hPa 0.0 l/m 1.8 km/h (1 Bft) O-SO 0.00 h 56 W/m 15.5 C 25.8 C 3.2 km/h (1 Bft)
27.06.2010 21:00 23.2 C 64 % 1015.1 hPa 0.0 l/m 1.0 km/h (0 Bft) O-SO 0.00 h 9 W/m 15.8 C 23.2 C 1.8 km/h (1 Bft)
27.06.2010 22:00 20.7 C 72 % 1015.8 hPa 0.0 l/m 0.8 km/h (0 Bft) O-SO 0.00 h 0 W/m 15.5 C 20.7 C 1.7 km/h (1 Bft)
27.06.2010 23:00 19.7 C 74 % 1016.0 hPa 0.0 l/m 1.3 km/h (1 Bft) O-SO 0.00 h 0 W/m 15.0 C 19.7 C 2.4 km/h (1 Bft)
Min-Datum _ 26.06.10 26.06.10 26.06.10 - 21.06.10 - - - 23.06.10 23.06.10 21.06.10
_ Min-Zeit 22:56 18:06 18:01 - 00:01 - - - 06:18 06:18 00:01
Minimum _ -0.1 C 33 % 1012.0 hPa - 0.0 km/h (0 Bft) - - - 6.3 C 7.4 C 0.0 km/h (0 Bft)
Max-Datum _ 27.06.10 23.06.10 22.06.10 21.06.10 23.06.10 - 21.06.10 21.06.10 27.06.10 27.06.10 23.06.10
_ Max-Zeit 16:40 07:08 22:31 15:01 12:49 - 08:01 14:22 12:15 16:40 11:22
Maximum _ 29.4 C 97 % 1021.8 hPa 2.2 l/m 19.1 km/h
O (3 Bft)
- 0.02 h 1266 W/m 19.2 C 29.4 C 27.8 km/h
O-SO (4 Bft)
Durchschnitt _ 17.7 C 70 % 1016.8 hPa #2.6 l/m 2.2 km/h (1 Bft) O-SO #72:34 h 385 W/m 11.5 C 17.7 C 4.2 km/h (1 Bft)
© Kaiko 2010